Liberty, New York
Current Conditions -  °F | °C
As of 7:35 PM on Sunday 25 Jan 2015 (Local Time) from KMSV Reporting Station
Clear Clear  
Wind Chill: 10°   Ceiling: Unl
Heat Index: 19°   Visibility: 10mi
Dew Point:   Wind: 7mph
Humidity: 58%   Direction: 320°NW
Pressure: 29.89"   Gusts: NA
Location:  41.8°N, 74.75°W
Report Text: KMSV 260035Z AUTO 32006KT 10SM CLR M07/M14 A2989 RMK AO1
Loading
Personal Weather Stations






























Interactive Weather Map New forecast layout! Learn more

10-Day Weather Forecast

Advertisements
Track Severe Weather on mobile